createdAt,value
2023-07-19T00:07:15.903Z,72.44
2023-07-19T00:11:05.486Z,72.56
2023-07-19T00:14:56.445Z,72.69
2023-07-19T00:18:35.572Z,72.72
2023-07-19T00:22:24.816Z,72.91
2023-07-19T00:41:45.426Z,73.49
2023-07-19T00:45:34.647Z,73.78
2023-07-19T00:49:23.986Z,73.88
2023-07-19T00:53:06.899Z,74.15
2023-07-19T01:12:31.389Z,74.85
2023-07-19T01:15:49.821Z,75.00
2023-07-19T01:19:47.358Z,74.97
2023-07-19T01:23:27.530Z,75.14
2023-07-19T01:27:22.799Z,75.23
2023-07-19T01:31:12.925Z,75.26
2023-07-19T01:35:02.640Z,75.40
2023-07-19T01:57:32.842Z,76.05
2023-07-19T02:01:22.371Z,76.19
2023-07-19T02:05:11.897Z,76.07
2023-07-19T02:28:17.998Z,76.36
2023-07-19T02:32:06.085Z,76.45
2023-07-19T02:35:54.557Z,76.59
2023-07-19T02:39:26.925Z,76.67
2023-07-19T02:54:54.370Z,76.60
2023-07-19T02:58:44.117Z,76.84
2023-07-19T03:06:28.774Z,76.89
2023-07-19T03:10:17.975Z,77.14
2023-07-19T03:13:47.102Z,77.23
2023-07-19T03:39:55.943Z,77.25
2023-07-19T03:43:34.097Z,77.42
2023-07-19T03:47:23.340Z,77.42
2023-07-19T03:51:39.778Z,77.46
2023-07-19T04:07:12.922Z,77.98
2023-07-19T04:10:51.060Z,77.93
2023-07-19T04:14:40.328Z,77.88
2023-07-19T04:18:31.497Z,77.90
2023-07-19T04:34:13.641Z,77.39
2023-07-19T04:38:04.113Z,77.30
2023-07-19T04:41:46.184Z,77.27
2023-07-19T04:45:35.591Z,77.32
2023-07-19T04:49:26.576Z,77.27
2023-07-19T04:52:50.600Z,77.05
2023-07-19T05:15:20.542Z,76.07
2023-07-19T05:19:10.763Z,75.83
2023-07-19T05:22:50.921Z,75.54
2023-07-19T05:26:41.061Z,75.27
2023-07-19T05:46:09.540Z,73.57
2023-07-19T05:49:57.434Z,73.51
2023-07-19T05:57:36.118Z,74.23
2023-07-19T06:01:10.476Z,73.00
2023-07-19T06:04:52.750Z,72.53
2023-07-19T06:08:32.849Z,72.32
2023-07-19T06:31:08.317Z,68.03
2023-07-19T06:34:58.586Z,67.18
2023-07-19T06:38:09.228Z,67.09
2023-07-19T06:41:04.789Z,66.44
2023-07-19T06:44:32.353Z,65.37
2023-07-19T06:47:25.839Z,64.70
2023-07-19T06:50:36.397Z,64.29
2023-07-19T06:53:48.126Z,63.71
2023-07-19T06:56:59.867Z,63.35
2023-07-19T07:00:08.732Z,62.95
2023-07-19T07:03:06.739Z,60.98
2023-07-19T07:05:51.178Z,58.19
2023-07-19T07:08:19.640Z,58.31
2023-07-19T07:10:48.359Z,58.08
2023-07-19T07:13:22.295Z,57.95
2023-07-19T07:15:52.852Z,56.63
2023-07-19T07:18:24.339Z,55.28
2023-07-19T07:20:53.170Z,54.59
2023-07-19T07:23:23.854Z,53.73
2023-07-19T07:25:54.646Z,52.41
2023-07-19T07:28:32.661Z,51.76
2023-07-19T07:31:14.774Z,50.68
2023-07-19T07:33:43.104Z,50.09
2023-07-19T07:36:14.673Z,49.09
2023-07-19T07:38:45.851Z,48.79
2023-07-19T07:41:42.784Z,48.21
2023-07-19T07:44:19.338Z,46.47
2023-07-19T07:47:01.340Z,45.97
2023-07-19T07:49:40.408Z,45.72
2023-07-19T07:52:19.150Z,45.75
2023-07-19T07:54:48.025Z,44.51
2023-07-19T07:57:34.270Z,44.18
2023-07-19T08:00:13.025Z,43.20
2023-07-19T08:02:41.374Z,42.51
2023-07-19T08:05:10.597Z,41.85
2023-07-19T08:07:41.915Z,41.77
2023-07-19T08:10:10.535Z,41.82
2023-07-19T08:12:41.289Z,40.36
2023-07-19T08:15:14.948Z,40.20
2023-07-19T08:17:43.409Z,39.65
2023-07-19T08:20:55.930Z,38.97
2023-07-19T08:23:52.778Z,37.94
2023-07-19T08:26:21.517Z,38.31
2023-07-19T08:28:56.425Z,38.77
2023-07-19T08:31:35.672Z,37.87
2023-07-19T08:34:44.901Z,38.25
2023-07-19T08:37:16.291Z,38.38
2023-07-19T08:40:08.974Z,38.21
2023-07-19T08:43:07.975Z,37.72
2023-07-19T08:46:05.638Z,37.00
2023-07-19T08:48:34.007Z,36.47
2023-07-19T08:51:15.580Z,36.42
2023-07-19T08:53:47.200Z,35.96
2023-07-19T08:56:15.824Z,35.57
2023-07-19T08:59:02.323Z,35.51
2023-07-19T09:01:50.348Z,35.89
2023-07-19T09:04:41.022Z,35.05
2023-07-19T09:07:25.155Z,35.65
2023-07-19T09:09:56.597Z,35.21
2023-07-19T09:12:45.437Z,35.09
2023-07-19T09:15:22.862Z,34.95
2023-07-19T09:18:22.970Z,35.18
2023-07-19T09:20:58.984Z,34.22
2023-07-19T09:23:39.992Z,34.73
2023-07-19T09:27:16.464Z,34.86
2023-07-19T09:29:57.467Z,33.62
2023-07-19T09:32:39.504Z,32.99
2023-07-19T09:35:28.821Z,32.76
2023-07-19T09:38:13.229Z,33.94
2023-07-19T09:41:26.993Z,34.00
2023-07-19T09:43:56.220Z,33.89
2023-07-19T09:46:25.648Z,33.53
2023-07-19T09:48:57.156Z,33.54
2023-07-19T09:51:35.649Z,33.49
2023-07-19T09:54:50.978Z,33.63
2023-07-19T09:57:32.540Z,33.39
2023-07-19T10:00:33.226Z,33.13
2023-07-19T10:03:28.831Z,33.00
2023-07-19T10:05:58.093Z,33.61
2023-07-19T10:08:45.598Z,32.46
2023-07-19T10:11:22.178Z,32.87
2023-07-19T10:14:10.530Z,32.19
2023-07-19T10:17:32.454Z,31.80
2023-07-19T10:20:13.999Z,32.59
2023-07-19T10:23:19.192Z,32.90
2023-07-19T10:26:39.601Z,32.46
2023-07-19T10:29:51.589Z,32.18
2023-07-19T10:32:43.602Z,31.67
2023-07-19T10:35:40.492Z,31.40
2023-07-19T10:39:03.585Z,30.95
2023-07-19T10:41:57.352Z,31.27
2023-07-19T10:45:32.307Z,30.86
2023-07-19T10:48:23.285Z,31.10
2023-07-19T10:50:52.764Z,31.06
2023-07-19T10:54:11.299Z,31.52
2023-07-19T10:56:54.965Z,31.76
2023-07-19T10:59:36.079Z,30.85
2023-07-19T11:02:38.085Z,31.42
2023-07-19T11:05:21.043Z,30.50
2023-07-19T11:08:05.958Z,30.34
2023-07-19T11:10:41.372Z,30.48
2023-07-19T11:13:10.281Z,30.52
2023-07-19T11:15:42.621Z,30.26
2023-07-19T11:18:10.909Z,29.98
2023-07-19T11:20:41.953Z,30.07
2023-07-19T11:23:47.279Z,30.04
2023-07-19T11:26:38.559Z,29.65
2023-07-19T11:29:36.158Z,30.13
2023-07-19T11:32:33.756Z,30.61
2023-07-19T11:35:25.798Z,30.16
2023-07-19T11:38:11.584Z,30.89
2023-07-19T11:41:00.112Z,30.87
2023-07-19T11:43:46.400Z,31.10
2023-07-19T11:46:17.152Z,31.44
2023-07-19T11:48:51.456Z,31.81
2023-07-19T11:51:20.087Z,31.93
2023-07-19T11:53:49.397Z,31.94
2023-07-19T11:56:36.951Z,31.98
2023-07-19T11:59:08.642Z,31.60
2023-07-19T12:02:24.729Z,31.69
2023-07-19T12:04:55.859Z,32.00
2023-07-19T12:07:27.045Z,32.41
2023-07-19T12:10:08.803Z,33.04
2023-07-19T12:12:39.890Z,32.64
2023-07-19T12:15:09.882Z,31.63
2023-07-19T12:17:38.521Z,31.63
2023-07-19T12:20:07.865Z,30.77
2023-07-19T12:22:50.921Z,30.91
2023-07-19T12:25:41.694Z,30.52
2023-07-19T12:28:09.935Z,30.35
2023-07-19T12:30:40.808Z,30.51
2023-07-19T12:33:16.286Z,30.40
2023-07-19T12:35:47.250Z,30.72
2023-07-19T12:38:47.058Z,31.09
2023-07-19T12:41:34.620Z,31.09
2023-07-19T12:44:07.619Z,30.84
2023-07-19T12:46:38.824Z,30.20
2023-07-19T12:49:48.270Z,29.39
2023-07-19T12:52:50.451Z,29.09
2023-07-19T12:55:27.181Z,29.12
2023-07-19T12:57:58.247Z,29.51
2023-07-19T13:00:38.918Z,29.42
2023-07-19T13:03:10.655Z,28.60
2023-07-19T13:05:41.531Z,28.29
2023-07-19T13:08:15.484Z,27.74
2023-07-19T13:10:44.235Z,27.71
2023-07-19T13:13:18.533Z,27.46
2023-07-19T13:15:55.346Z,27.42
2023-07-19T13:18:49.137Z,27.01
2023-07-19T13:21:17.576Z,27.20
2023-07-19T13:24:24.236Z,27.43
2023-07-19T13:27:37.090Z,26.83
2023-07-19T13:30:09.389Z,26.81
2023-07-19T13:33:23.136Z,27.20
2023-07-19T13:39:46.285Z,27.18
2023-07-19T13:42:36.544Z,27.44
2023-07-19T13:45:37.343Z,27.54
2023-07-19T13:48:52.325Z,27.20
2023-07-19T13:51:54.930Z,28.02
2023-07-19T13:55:08.027Z,27.78
2023-07-19T13:57:58.051Z,27.58
2023-07-19T14:00:54.145Z,28.45
2023-07-19T14:03:59.719Z,28.28
2023-07-19T14:06:32.043Z,28.50
2023-07-19T14:09:41.268Z,28.72
2023-07-19T14:12:14.733Z,28.86
2023-07-19T14:14:45.763Z,29.11
2023-07-19T14:18:01.066Z,29.23
2023-07-19T14:20:45.505Z,29.15
2023-07-19T14:23:16.698Z,29.10
2023-07-19T14:25:48.030Z,29.34
2023-07-19T14:28:22.004Z,29.52
2023-07-19T14:31:18.845Z,29.72
2023-07-19T14:34:25.819Z,29.47
2023-07-19T14:37:02.566Z,29.90
2023-07-19T14:39:46.159Z,30.34
2023-07-19T14:42:57.536Z,30.39
2023-07-19T14:45:37.287Z,30.56
2023-07-19T14:48:06.767Z,30.18
2023-07-19T14:50:35.973Z,30.17
2023-07-19T14:53:09.978Z,30.91
2023-07-19T14:55:38.382Z,31.06
2023-07-19T14:58:20.157Z,30.53
2023-07-19T15:00:57.684Z,30.68
2023-07-19T15:03:28.890Z,31.13
2023-07-19T15:06:03.751Z,30.80
2023-07-19T15:08:40.055Z,30.54
2023-07-19T15:11:14.468Z,31.03
2023-07-19T15:13:52.369Z,30.79
2023-07-19T15:16:23.521Z,30.87
2023-07-19T15:18:57.467Z,30.88
2023-07-19T15:21:41.627Z,30.80
2023-07-19T15:24:22.709Z,30.81
2023-07-19T15:26:56.594Z,31.34
2023-07-19T15:29:45.304Z,30.77
2023-07-19T15:32:36.003Z,31.21
2023-07-19T15:35:28.342Z,31.01
2023-07-19T15:37:57.479Z,31.00
2023-07-19T15:40:40.912Z,30.88
2023-07-19T15:43:22.107Z,31.18
2023-07-19T15:45:59.440Z,31.22
2023-07-19T15:48:37.329Z,31.09
2023-07-19T15:51:11.451Z,31.38
2023-07-19T15:53:44.124Z,31.59
2023-07-19T15:56:15.256Z,31.58
2023-07-19T15:58:44.448Z,31.50
2023-07-19T16:01:35.250Z,31.51
2023-07-19T16:04:19.067Z,31.87
2023-07-19T16:06:50.381Z,32.01
2023-07-19T16:09:18.988Z,32.42
2023-07-19T16:11:53.170Z,32.35
2023-07-19T16:14:34.551Z,32.07
2023-07-19T16:17:08.064Z,32.44
2023-07-19T16:20:29.364Z,32.52
2023-07-19T16:23:30.997Z,32.66
2023-07-19T16:25:59.590Z,32.61
2023-07-19T16:28:30.339Z,32.87
2023-07-19T16:31:01.153Z,33.17
2023-07-19T16:33:44.596Z,33.16
2023-07-19T16:36:29.873Z,33.26
2023-07-19T16:39:18.576Z,33.63
2023-07-19T16:42:17.377Z,33.36
2023-07-19T16:45:02.198Z,33.47
2023-07-19T16:47:48.724Z,33.73
2023-07-19T16:50:32.122Z,33.82
2023-07-19T16:53:30.481Z,33.59
2023-07-19T16:56:12.486Z,33.84
2023-07-19T16:58:51.082Z,34.06
2023-07-19T17:01:29.035Z,34.28
2023-07-19T17:04:10.652Z,34.36
2023-07-19T17:07:09.699Z,34.56
2023-07-19T17:09:40.939Z,34.70
2023-07-19T17:12:15.040Z,34.74
2023-07-19T17:15:01.684Z,34.98
2023-07-19T17:17:33.354Z,34.96
2023-07-19T17:20:33.467Z,35.03
2023-07-19T17:23:02.321Z,35.29
2023-07-19T17:25:36.853Z,35.67
2023-07-19T17:28:10.689Z,35.75
2023-07-19T17:30:53.710Z,35.90
2023-07-19T17:34:11.758Z,36.03
2023-07-19T17:37:02.802Z,36.12
2023-07-19T17:40:15.448Z,36.46
2023-07-19T17:43:26.948Z,36.79
2023-07-19T17:46:32.370Z,37.08
2023-07-19T17:49:33.836Z,37.25
2023-07-19T17:52:45.854Z,37.16
2023-07-19T17:55:48.645Z,37.38
2023-07-19T17:58:50.666Z,37.64
2023-07-19T18:02:09.822Z,37.70
2023-07-19T18:05:34.765Z,37.86
2023-07-19T18:08:54.508Z,38.20
2023-07-19T18:11:39.273Z,38.28
2023-07-19T18:15:07.108Z,38.65
2023-07-19T18:17:55.670Z,39.01
2023-07-19T18:21:24.344Z,39.50
2023-07-19T18:24:38.544Z,39.63
2023-07-19T18:28:10.613Z,40.10
2023-07-19T18:31:21.247Z,40.56
2023-07-19T18:34:21.268Z,40.80
2023-07-19T18:41:24.571Z,41.31
2023-07-19T18:43:55.895Z,41.70
2023-07-19T18:47:07.496Z,41.81
2023-07-19T18:49:54.844Z,42.19
2023-07-19T18:53:27.996Z,42.45
2023-07-19T18:55:56.723Z,42.78
2023-07-19T19:03:17.808Z,43.49
2023-07-19T19:09:19.930Z,44.15
2023-07-19T19:12:51.586Z,44.66
2023-07-19T19:16:23.084Z,45.01
2023-07-19T19:19:36.590Z,45.40
2023-07-19T19:22:21.007Z,45.91
2023-07-19T19:25:50.128Z,46.23
2023-07-19T19:28:51.459Z,46.42
2023-07-19T19:32:01.018Z,46.86
2023-07-19T19:35:10.115Z,47.11
2023-07-19T19:38:34.588Z,47.41
2023-07-19T19:41:48.931Z,47.74
2023-07-19T19:45:08.710Z,47.91
2023-07-19T19:48:37.876Z,48.26
2023-07-19T19:51:46.634Z,48.52
2023-07-19T19:55:08.064Z,48.88
2023-07-19T19:58:58.872Z,49.05
2023-07-19T20:06:25.503Z,49.51
2023-07-19T20:10:01.520Z,49.75
2023-07-19T20:13:55.661Z,50.01
2023-07-19T20:17:24.910Z,50.32
2023-07-19T20:21:12.599Z,50.41
2023-07-19T20:24:37.248Z,50.77
2023-07-19T20:28:06.206Z,50.78
2023-07-19T20:41:57.936Z,51.52
2023-07-19T20:45:29.102Z,51.79
2023-07-19T20:49:05.216Z,52.04
2023-07-19T20:52:25.761Z,52.43
2023-07-19T20:56:15.296Z,52.50
2023-07-19T20:59:51.439Z,52.55
2023-07-19T21:02:58.783Z,52.70
2023-07-19T21:06:49.874Z,52.73
2023-07-19T21:10:14.775Z,52.91
2023-07-19T21:13:52.992Z,53.14
2023-07-19T21:17:43.281Z,53.38
2023-07-19T21:50:42.027Z,55.18
2023-07-19T21:54:24.330Z,55.19
2023-07-19T21:58:06.455Z,55.27
2023-07-19T22:01:54.365Z,55.39
2023-07-19T22:05:25.040Z,55.46
2023-07-19T22:09:14.021Z,55.60
2023-07-19T22:28:41.703Z,56.31
2023-07-19T22:32:31.988Z,56.54
2023-07-19T22:36:15.044Z,56.88
2023-07-19T22:40:05.849Z,57.10
2023-07-19T22:59:30.765Z,58.39
2023-07-19T23:03:05.291Z,58.87
2023-07-19T23:06:48.176Z,59.04
2023-07-19T23:25:43.652Z,60.16
2023-07-19T23:29:32.936Z,60.71
2023-07-19T23:33:23.154Z,60.96
2023-07-19T23:37:05.125Z,61.33
2023-07-19T23:40:44.099Z,61.55
